Fossil, OR (97830)

12:34 PM PDT on July 07, 2015 (GMT -0700)
High School | | Change Station
CLOSE
Current Station
Personal Weather Station
Location: Fossil, OR
Elevation: 2708 ft
Nearby Weather Stations
Active Advisory: Fire Weather Warning Active Notice: Record Report

Elev 2708 ft 45.00 °N, 120.21 °W | Updated 20 seconds ago

Clear
Clear
85.0 °F
Feels Like 83 °F
N
0.0
Wind Variable Wind from NE
Gusts 11.0 mph

Today
High -- | Low -- °F
--% Chance of Precip.
Yesterday
High -- | Low -- °F
Precip. -- in
5:21 AM 8:49 PM
Waning Gibbous, 62% visible
Pressure 29.85 in
Visibility 10.0 miles
Clouds Clear
Heat Index 83 °F
Dew Point 48 °F
Humidity 28%
Rainfall 0.00 in
Snow Depth Not available.
UV 11 out of 12
Pollen 7.50 out of 12
Air Quality Not available.
Flu Activity Not available.
METAR KPDT 071853Z 24009G16KT 10SM CLR 33/07 A2991 RMK AO2 SLP107 T03330067

More Conditions Fewer Conditions

Pressure 29.85 in
Visibility 10.0 miles
Clouds Clear
Heat Index 83 °F
Dew Point 48 °F
Humidity 28%
Rainfall 0.00 in
Snow Depth Not available.
UV 11 out of 12
Pollen 7.50 out of 12
Air Quality Not available.
Flu Activity Not available.
METAR KPDT 071853Z 24009G16KT 10SM CLR 33/07 A2991 RMK AO2 SLP107 T03330067

More Conditions Fewer Conditions

10-Day Weather Forecast

×

Almanac

Astronomy

Jul. 07, 2015 Rise Set
Actual Time
Civil Twilight
Nautical Twilight
Astronomical Twilight
Moon
Length of Visible Light
Length of Day
Tomorrow will be .
, % of the Moon is Illuminated

Today's Extremes

State Highs State Lows

Community

WunderPhotos

Upload Photos

1,835,880 photos uploaded!

WunderBlogs® & News

Nearby

Air Quality

  Air Quality AQ Index Pollutant
Not available.

Snow Depth

Station Depth Elevation

Earthquake Activity

City Distance Mag. Time & Date
Minimum magnitude displayed is 2.5.

Coastal Water Temperatures

Place Temperature

Stations

Nearby Weather Stations

Station Location Temp. Windchill Dew Point Humidity Wind Precip. Elev Updated Type
                   
Fire Weather Warning
Statement as of 8:43 AM PDT on July 07, 2015

... Red flag warning remains in effect until 9 PM PDT this evening
for abundant lightning and gusty outflow winds for fire weather
zones 610... 611 and 640...

* affected area... fire weather zone 610... 611... 640.

* Timing... the expected time for scattered thunderstorms will be
between 2 PM and 8 PM today.

* Lightning activity... 4 after 2 PM decreasing to 3 after 5 PM
for most areas of 611.

* Precipitation... some storms may bring brief heavy rain with
amounts up to one quarter of an inch of rain.

* Impacts... any fires that develop will likely spread rapidly.
Outdoor burning is not recommended.

Precautionary/preparedness actions...

A red flag warning means that critical fire weather conditions
are either occurring now... or will shortly. A combination of
strong winds... low relative humidity... and warm temperatures can
contribute to extreme fire behavior.